createdAt,value
2023-04-14T03:24:40.195Z,94648.50
2023-04-14T03:27:18.643Z,94650.84
2023-04-14T03:29:53.614Z,94647.13
2023-04-14T03:32:28.075Z,94652.44
2023-04-14T03:35:01.985Z,94651.16
2023-04-14T03:37:37.689Z,94650.09
2023-04-14T03:40:11.334Z,94649.69
2023-04-14T03:42:44.902Z,94642.78
2023-04-14T03:45:23.839Z,94639.38
2023-04-14T03:48:02.011Z,94648.47
2023-04-14T03:50:37.882Z,94643.16
2023-04-14T03:53:09.658Z,94643.16
2023-04-14T03:55:45.019Z,94639.75
2023-04-14T03:58:17.235Z,94640.06
2023-04-14T04:00:49.708Z,94637.09
2023-04-14T04:03:21.141Z,94632.81
2023-04-14T04:05:51.716Z,94642.03
2023-04-14T04:08:23.856Z,94649.72
2023-04-14T04:10:56.502Z,94652.25
2023-04-14T04:13:28.234Z,94648.00
2023-04-14T04:15:59.755Z,94659.31
2023-04-14T04:18:32.145Z,94647.88
2023-04-14T04:21:02.914Z,94655.78
2023-04-14T04:23:36.047Z,94657.94
2023-04-14T04:26:07.930Z,94659.88
2023-04-14T04:28:41.550Z,94659.25
2023-04-14T04:31:12.072Z,94660.31
2023-04-14T04:33:42.243Z,94662.97
2023-04-14T04:36:13.069Z,94653.13
2023-04-14T04:38:45.251Z,94660.13
2023-04-14T04:41:28.896Z,94658.19
2023-04-14T04:44:01.580Z,94654.19
2023-04-14T04:46:51.489Z,94662.41
2023-04-14T04:49:21.489Z,94661.28
2023-04-14T04:51:51.678Z,94653.88
2023-04-14T04:54:22.152Z,94663.41
2023-04-14T04:56:52.932Z,94658.63
2023-04-14T04:59:22.376Z,94659.69
2023-04-14T05:01:53.140Z,94668.22
2023-04-14T05:04:22.884Z,94669.22
2023-04-14T05:06:52.540Z,94679.19
2023-04-14T05:09:22.187Z,94678.38
2023-04-14T05:11:53.182Z,94678.44
2023-04-14T05:14:22.805Z,94681.41
2023-04-14T05:16:52.404Z,94687.00
2023-04-14T05:19:21.909Z,94689.16
2023-04-14T05:21:51.624Z,94697.66
2023-04-14T05:24:21.308Z,94693.41
2023-04-14T05:27:12.494Z,94709.56
2023-04-14T05:29:41.800Z,94713.91
2023-04-14T05:32:12.889Z,94712.66
2023-04-14T05:34:42.906Z,94713.53
2023-04-14T05:37:12.420Z,94714.56
2023-04-14T05:39:42.371Z,94721.25
2023-04-14T05:42:13.657Z,94709.19
2023-04-14T05:44:43.207Z,94717.97
2023-04-14T05:47:12.584Z,94718.03
2023-04-14T05:49:42.008Z,94712.53
2023-04-14T05:52:11.504Z,94712.78
2023-04-14T05:54:43.013Z,94705.84
2023-04-14T05:57:14.116Z,94706.81
2023-04-14T05:59:43.615Z,94700.03
2023-04-14T06:02:13.257Z,94695.13
2023-04-14T06:04:42.916Z,94686.94
2023-04-14T06:07:12.441Z,94682.31
2023-04-14T06:09:42.642Z,94687.94
2023-04-14T06:12:14.146Z,94683.13
2023-04-14T06:14:43.913Z,94683.44
2023-04-14T06:17:13.550Z,94681.56
2023-04-14T06:19:42.992Z,94673.78
2023-04-14T06:22:16.729Z,94678.91
2023-04-14T06:24:46.229Z,94686.09
2023-04-14T06:27:17.123Z,94686.59
2023-04-14T06:29:46.524Z,94686.41
2023-04-14T06:32:16.102Z,94689.06
2023-04-14T06:34:45.853Z,94699.22
2023-04-14T06:37:16.282Z,94699.22
2023-04-14T06:39:45.926Z,94701.44
2023-04-14T06:42:17.259Z,94703.03
2023-04-14T06:44:46.662Z,94698.56
2023-04-14T06:47:20.889Z,94707.66
2023-04-14T06:49:51.295Z,94706.28
2023-04-14T06:52:20.783Z,94704.56
2023-04-14T06:54:50.614Z,94705.41
2023-04-14T06:57:21.540Z,94705.91
2023-04-14T06:59:51.234Z,94701.44
2023-04-14T07:02:20.919Z,94703.59
2023-04-14T07:04:50.533Z,94706.78
2023-04-14T07:07:19.994Z,94708.09
2023-04-14T07:09:49.530Z,94701.22
2023-04-14T07:12:20.907Z,94704.50
2023-04-14T07:14:52.422Z,94700.06
2023-04-14T07:17:22.037Z,94692.34
2023-04-14T07:19:51.537Z,94690.22
2023-04-14T07:22:21.554Z,94683.91
2023-04-14T07:24:51.556Z,94686.25
2023-04-14T07:27:22.374Z,94689.44
2023-04-14T07:29:53.206Z,94690.84
2023-04-14T07:32:22.801Z,94693.28
2023-04-14T07:34:52.378Z,94690.69
2023-04-14T07:37:28.033Z,94696.31
2023-04-14T07:39:58.846Z,94697.16
2023-04-14T07:42:29.626Z,94691.28
2023-04-14T07:44:59.043Z,94703.38
2023-04-14T07:47:28.533Z,94693.41
2023-04-14T07:49:58.396Z,94706.78
2023-04-14T07:52:27.824Z,94707.88
2023-04-14T07:54:57.303Z,94709.22
2023-04-14T07:57:27.094Z,94713.47
2023-04-14T07:59:57.954Z,94712.09
2023-04-14T08:02:27.583Z,94718.69
2023-04-14T08:04:57.135Z,94715.78
2023-04-14T08:07:28.568Z,94713.09
2023-04-14T08:09:58.135Z,94719.25
2023-04-14T08:12:27.527Z,94709.44
2023-04-14T08:14:58.318Z,94722.41
2023-04-14T08:17:27.841Z,94714.66
2023-04-14T08:19:57.291Z,94723.66
2023-04-14T08:22:26.710Z,94727.69
2023-04-14T08:24:58.528Z,94730.41
2023-04-14T08:27:27.948Z,94732.88
2023-04-14T08:29:58.793Z,94742.22
2023-04-14T08:32:28.396Z,94740.31
2023-04-14T08:35:41.015Z,94742.72
2023-04-14T08:37:47.680Z,94740.91
2023-04-14T08:40:19.153Z,94745.94
2023-04-14T08:42:48.679Z,94742.47
2023-04-14T08:45:20.195Z,94742.19
2023-04-14T08:47:54.770Z,94745.25
2023-04-14T08:50:29.015Z,94750.59
2023-04-14T08:53:02.879Z,94742.88
2023-04-14T08:55:35.154Z,94745.84
2023-04-14T08:58:10.790Z,94738.31
2023-04-14T09:00:42.531Z,94736.00
2023-04-14T09:03:14.086Z,94735.22
2023-04-14T09:05:45.314Z,94735.50
2023-04-14T09:08:15.283Z,94735.28
2023-04-14T09:10:45.143Z,94730.78
2023-04-14T09:13:17.642Z,94739.84
2023-04-14T09:15:48.561Z,94725.94
2023-04-14T09:18:18.630Z,94733.16
2023-04-14T09:21:29.565Z,94725.16
2023-04-14T09:23:41.720Z,94720.59
2023-04-14T09:26:11.642Z,94716.34
2023-04-14T09:28:42.221Z,94723.91
2023-04-14T09:31:13.101Z,94723.63
2023-04-14T09:33:51.201Z,94724.97
2023-04-14T09:36:22.898Z,94726.22
2023-04-14T09:38:53.471Z,94720.56
2023-04-14T09:41:25.967Z,94727.38
2023-04-14T09:43:55.542Z,94720.47
2023-04-14T09:46:26.374Z,94717.53
2023-04-14T09:48:57.887Z,94719.47
2023-04-14T09:51:30.213Z,94715.47
2023-04-14T09:54:05.253Z,94716.00
2023-04-14T09:56:35.165Z,94708.28
2023-04-14T09:59:04.847Z,94730.19
2023-04-14T10:01:36.741Z,94740.34
2023-04-14T10:04:06.433Z,94743.56
2023-04-14T10:06:35.941Z,94741.97
2023-04-14T10:09:05.848Z,94730.25
2023-04-14T10:11:36.435Z,94734.53
2023-04-14T10:14:07.986Z,94740.72
2023-04-14T10:16:38.926Z,94737.50
2023-04-14T10:19:08.447Z,94729.22
2023-04-14T10:21:38.118Z,94729.75
2023-04-14T10:24:07.872Z,94718.78
2023-04-14T10:26:37.448Z,94727.88
2023-04-14T10:29:07.148Z,94725.75
2023-04-14T10:31:44.748Z,94728.13
2023-04-14T10:34:16.710Z,94726.25
2023-04-14T10:36:46.377Z,94726.53
2023-04-14T10:39:24.689Z,94716.91
2023-04-14T10:41:56.987Z,94721.72
2023-04-14T10:44:29.376Z,94704.84
2023-04-14T10:47:02.879Z,94702.19
2023-04-14T10:49:35.452Z,94715.03
2023-04-14T10:52:08.112Z,94710.47
2023-04-14T10:54:52.243Z,94707.81
2023-04-14T10:57:24.497Z,94696.03
2023-04-14T10:59:59.156Z,94696.03
2023-04-14T11:02:33.311Z,94694.16
2023-04-14T11:05:08.801Z,94691.91
2023-04-14T11:07:45.669Z,94691.63
2023-04-14T11:10:36.561Z,94674.75
2023-04-14T11:13:09.112Z,94668.50
2023-04-14T11:15:53.092Z,94664.16
2023-04-14T11:18:37.118Z,94662.03
2023-04-14T11:21:08.927Z,94663.50
2023-04-14T11:23:39.375Z,94656.88
2023-04-14T11:26:12.172Z,94652.88
2023-04-14T11:28:44.457Z,94640.53
2023-04-14T11:31:19.316Z,94643.44
2023-04-14T11:33:51.216Z,94638.66
2023-04-14T11:36:20.657Z,94638.16
2023-04-14T11:38:50.845Z,94637.25
2023-04-14T11:41:21.518Z,94636.97
2023-04-14T11:43:51.742Z,94639.06
2023-04-14T11:46:22.081Z,94629.59
2023-04-14T11:48:57.806Z,94642.06
2023-04-14T11:51:32.248Z,94627.97
2023-04-14T11:54:37.145Z,94617.06
2023-04-14T11:57:11.907Z,94624.00
2023-04-14T11:59:44.501Z,94619.94
2023-04-14T12:02:19.421Z,94610.44
2023-04-14T12:04:52.519Z,94607.84
2023-04-14T12:07:23.582Z,94599.94
2023-04-14T12:09:53.073Z,94604.16
2023-04-14T12:12:22.528Z,94596.22
2023-04-14T12:14:52.226Z,94602.69
2023-04-14T12:17:22.004Z,94600.50
2023-04-14T12:19:52.903Z,94598.56
2023-04-14T12:22:27.328Z,94594.84
2023-04-14T12:24:58.391Z,94588.13
2023-04-14T12:27:28.513Z,94595.72
2023-04-14T12:29:58.500Z,94587.19
2023-04-14T12:32:30.642Z,94578.53
2023-04-14T12:35:02.260Z,94572.66
2023-04-14T12:37:31.689Z,94569.81
2023-04-14T12:40:06.851Z,94565.59
2023-04-14T12:42:48.549Z,94573.75
2023-04-14T12:45:18.750Z,94572.25
2023-04-14T12:49:52.463Z,94582.56
2023-04-14T12:52:38.189Z,94585.41
2023-04-14T13:00:19.354Z,94611.25
2023-04-14T13:02:49.514Z,94617.69
2023-04-14T13:05:19.799Z,94631.59
2023-04-14T13:07:50.819Z,94613.41
2023-04-14T13:10:20.635Z,94611.53
2023-04-14T13:12:50.521Z,94600.03
2023-04-14T13:15:57.458Z,94604.56
2023-04-14T13:18:09.690Z,94604.56
2023-04-14T13:20:39.133Z,94595.75
2023-04-14T13:23:09.908Z,94587.72
2023-04-14T13:25:39.472Z,94590.66
2023-04-14T13:28:09.534Z,94589.63
2023-04-14T13:30:41.267Z,94595.50
2023-04-14T13:33:12.042Z,94593.91
2023-04-14T13:35:41.686Z,94590.13
2023-04-14T13:38:12.663Z,94585.03
2023-04-14T13:40:42.172Z,94580.47
2023-04-14T13:43:17.228Z,94576.19
2023-04-14T13:45:47.403Z,94563.03
2023-04-14T13:48:16.983Z,94567.81
2023-04-14T13:50:46.393Z,94557.16
2023-04-14T13:53:17.772Z,94562.78
2023-04-14T13:55:47.465Z,94553.94
2023-04-14T13:58:16.946Z,94554.16
2023-04-14T14:00:46.395Z,94553.00
2023-04-14T14:03:16.089Z,94552.72
2023-04-14T14:05:45.794Z,94555.84
2023-04-14T14:08:17.084Z,94549.44
2023-04-14T14:10:46.671Z,94546.66
2023-04-14T14:13:17.378Z,94545.72
2023-04-14T14:15:48.715Z,94546.09
2023-04-14T14:18:18.194Z,94531.63
2023-04-14T14:20:48.076Z,94544.09
2023-04-14T14:23:18.880Z,94533.25
2023-04-14T14:25:48.508Z,94535.25
2023-04-14T14:28:18.289Z,94528.41
2023-04-14T14:30:47.776Z,94534.19
2023-04-14T14:33:17.228Z,94522.84
2023-04-14T14:35:46.761Z,94518.16
2023-04-14T14:38:17.688Z,94507.19
2023-04-14T14:40:47.179Z,94506.38
2023-04-14T14:43:16.619Z,94515.81
2023-04-14T14:45:46.598Z,94510.03
2023-04-14T14:48:16.565Z,94511.72
2023-04-14T14:50:46.006Z,94510.25
2023-04-14T14:53:15.414Z,94518.47
2023-04-14T14:55:46.279Z,94514.72
2023-04-14T14:58:16.022Z,94519.97
2023-04-14T15:00:46.782Z,94512.22
2023-04-14T15:03:16.935Z,94519.63
2023-04-14T15:05:46.509Z,94514.47
2023-04-14T15:08:16.147Z,94511.59
2023-04-14T15:10:47.380Z,94509.97
2023-04-14T15:13:17.133Z,94514.66
2023-04-14T15:15:47.271Z,94513.59
2023-04-14T15:18:16.983Z,94516.97
2023-04-14T15:20:47.851Z,94515.19
2023-04-14T15:23:17.420Z,94514.19
2023-04-14T15:25:48.838Z,94516.50
2023-04-14T15:28:18.491Z,94519.97
2023-04-14T15:30:48.060Z,94519.97
2023-04-14T15:33:17.746Z,94517.56
2023-04-14T15:35:47.414Z,94518.16
2023-04-14T15:38:17.355Z,94522.38
2023-04-14T15:40:48.343Z,94514.28
2023-04-14T15:43:18.100Z,94529.84
2023-04-14T15:45:47.926Z,94515.31
2023-04-14T15:48:17.531Z,94522.06
2023-04-14T15:50:47.038Z,94511.00
2023-04-14T15:53:16.778Z,94524.47
2023-04-14T15:55:50.389Z,94518.75
2023-04-14T15:58:20.743Z,94518.25
2023-04-14T16:00:50.850Z,94508.19
2023-04-14T16:03:20.702Z,94517.22
2023-04-14T16:05:50.519Z,94522.69
2023-04-14T16:08:20.319Z,94521.81
2023-04-14T16:10:51.307Z,94525.88
2023-04-14T16:13:20.867Z,94525.22
2023-04-14T16:15:50.471Z,94525.31
2023-04-14T16:18:20.106Z,94514.56
2023-04-14T16:20:50.296Z,94514.81
2023-04-14T16:23:19.900Z,94509.78
2023-04-14T16:25:51.571Z,94521.94
2023-04-14T16:28:22.159Z,94522.41
2023-04-14T16:30:51.922Z,94517.78
2023-04-14T16:33:21.560Z,94525.09
2023-04-14T16:35:51.734Z,94521.09
2023-04-14T16:38:21.324Z,94520.00
2023-04-14T16:40:57.631Z,94521.19
2023-04-14T16:43:28.498Z,94522.75
2023-04-14T16:46:03.376Z,94529.81
2023-04-14T16:48:33.440Z,94524.06
2023-04-14T16:51:05.770Z,94521.94
2023-04-14T16:53:36.466Z,94519.13
2023-04-14T16:56:08.785Z,94522.00
2023-04-14T16:58:39.920Z,94516.97
2023-04-14T17:01:09.553Z,94525.97
2023-04-14T17:03:39.406Z,94532.69
2023-04-14T17:06:09.083Z,94536.81
2023-04-14T17:08:39.617Z,94532.66
2023-04-14T17:11:10.671Z,94530.53
2023-04-14T17:13:40.229Z,94531.19
2023-04-14T17:16:11.191Z,94537.34
2023-04-14T17:18:41.318Z,94540.28
2023-04-14T17:21:10.917Z,94537.16
2023-04-14T17:23:40.794Z,94539.88
2023-04-14T17:26:12.186Z,94539.88
2023-04-14T17:28:41.711Z,94540.16
2023-04-14T17:31:14.531Z,94540.97
2023-04-14T17:33:46.047Z,94541.53
2023-04-14T17:36:17.417Z,94536.50
2023-04-14T17:38:46.980Z,94543.47
2023-04-14T17:41:18.769Z,94540.28
2023-04-14T17:43:48.343Z,94544.59
2023-04-14T17:46:22.378Z,94540.63
2023-04-14T17:48:52.261Z,94544.09
2023-04-14T17:51:21.870Z,94545.69
2023-04-14T17:53:51.496Z,94549.72
2023-04-14T17:56:22.663Z,94541.69
2023-04-14T17:58:53.065Z,94541.22
2023-04-14T18:01:24.057Z,94544.69
2023-04-14T18:03:53.771Z,94541.47
2023-04-14T18:06:23.413Z,94546.03
2023-04-14T18:08:52.941Z,94537.50
2023-04-14T18:11:24.448Z,94548.72
2023-04-14T18:13:54.782Z,94553.81
2023-04-14T18:16:24.351Z,94550.59
2023-04-14T18:18:54.743Z,94551.94
2023-04-14T18:21:24.199Z,94550.88
2023-04-14T18:26:27.593Z,94567.13
2023-04-14T18:28:57.933Z,94554.88
2023-04-14T18:31:27.704Z,94565.53
2023-04-14T18:34:02.949Z,94565.53
2023-04-14T18:36:33.420Z,94570.88
2023-04-14T18:39:03.302Z,94566.28
2023-04-14T18:41:34.418Z,94564.69
2023-04-14T18:44:04.392Z,94570.56
2023-04-14T18:46:34.296Z,94576.44
2023-04-14T18:59:12.925Z,94587.88
2023-04-14T19:01:42.674Z,94587.63
2023-04-14T19:04:12.397Z,94588.69
2023-04-14T19:06:42.136Z,94593.25
2023-04-14T19:09:11.702Z,94592.41
2023-04-14T19:11:41.423Z,94595.38
2023-04-14T19:14:12.574Z,94593.22
2023-04-14T19:16:42.118Z,94601.25
2023-04-14T19:19:11.754Z,94606.28
2023-04-14T19:21:41.282Z,94605.25
2023-04-14T19:24:10.840Z,94590.81
2023-04-14T19:26:40.882Z,94590.53
2023-04-14T19:29:12.342Z,94601.97
2023-04-14T19:31:42.055Z,94599.53
2023-04-14T19:34:11.833Z,94600.59
2023-04-14T19:36:41.427Z,94603.03
2023-04-14T19:39:11.293Z,94605.94
2023-04-14T19:41:41.071Z,94615.03
2023-04-14T19:44:14.449Z,94619.00
2023-04-14T19:46:44.232Z,94607.53
2023-04-14T19:49:14.313Z,94609.69
2023-04-14T19:51:44.716Z,94608.06
2023-04-14T19:54:14.394Z,94609.69
2023-04-14T19:56:45.097Z,94608.34
2023-04-14T19:59:16.391Z,94610.19
2023-04-14T20:01:47.441Z,94613.41
2023-04-14T20:04:17.410Z,94604.34
2023-04-14T20:06:47.021Z,94608.88
2023-04-14T20:09:16.881Z,94606.22
2023-04-14T20:11:46.986Z,94596.34
2023-04-14T20:14:17.949Z,94597.94
2023-04-14T20:16:47.524Z,94588.88
2023-04-14T20:19:17.405Z,94591.53
2023-04-14T20:21:46.964Z,94600.06
2023-04-14T20:24:16.478Z,94599.00
2023-04-14T20:26:46.598Z,94588.88
2023-04-14T20:29:17.595Z,94593.66
2023-04-14T20:31:47.253Z,94590.47
2023-04-14T20:34:16.978Z,94589.91
2023-04-14T20:36:46.596Z,94592.03
2023-04-14T20:39:16.227Z,94581.88
2023-04-14T20:41:46.405Z,94579.22
2023-04-14T20:44:17.383Z,94575.72
2023-04-14T20:46:47.399Z,94582.13
2023-04-14T20:49:16.983Z,94578.66
2023-04-14T20:51:48.846Z,94581.56
2023-04-14T20:54:18.426Z,94581.56
2023-04-14T20:56:48.106Z,94574.63
2023-04-14T20:59:19.072Z,94568.75
2023-04-14T21:01:49.076Z,94573.53
2023-04-14T21:04:19.009Z,94568.19
2023-04-14T21:06:49.239Z,94574.63
2023-04-14T21:09:18.976Z,94577.31
2023-04-14T21:11:48.649Z,94573.28
2023-04-14T21:15:30.207Z,94577.81
2023-04-14T21:17:29.400Z,94570.66
2023-04-14T21:19:59.121Z,94574.16
2023-04-14T21:22:28.784Z,94563.69
2023-04-14T21:24:58.521Z,94565.03
2023-04-14T21:27:29.408Z,94564.72
2023-04-14T21:30:00.808Z,94570.88
2023-04-14T21:32:30.483Z,94562.06
2023-04-14T21:35:00.128Z,94566.84
2023-04-14T21:37:30.588Z,94569.00
2023-04-14T21:40:01.399Z,94570.31
2023-04-14T21:42:31.481Z,94568.47
2023-04-14T21:45:07.791Z,94572.44
2023-04-14T21:47:37.390Z,94572.44
2023-04-14T21:50:09.657Z,94568.72
2023-04-14T21:52:39.291Z,94565.78
2023-04-14T21:55:10.469Z,94570.31
2023-04-14T21:57:45.836Z,94565.53
2023-04-14T22:00:20.562Z,94561.81
2023-04-14T22:02:50.416Z,94562.03
2023-04-14T22:05:20.234Z,94554.84
2023-04-14T22:07:49.801Z,94558.03
2023-04-14T22:10:20.679Z,94561.22
2023-04-14T22:12:50.632Z,94557.69
2023-04-14T22:15:22.285Z,94555.84
2023-04-14T22:17:51.953Z,94564.13
2023-04-14T22:20:23.474Z,94559.06
2023-04-14T22:22:53.097Z,94562.84
2023-04-14T22:25:23.399Z,94561.78
2023-04-14T22:27:53.507Z,94563.41
2023-04-14T22:30:24.458Z,94562.88
2023-04-14T22:32:54.022Z,94554.88
2023-04-14T22:35:23.587Z,94558.34
2023-04-14T22:37:53.448Z,94554.88
2023-04-14T22:40:28.416Z,94549.53
2023-04-14T22:42:57.984Z,94546.34
2023-04-14T22:45:29.779Z,94545.81
2023-04-14T22:47:59.527Z,94541.81
2023-04-14T22:50:30.819Z,94552.75
2023-04-14T22:53:00.869Z,94551.69
2023-04-14T22:55:30.729Z,94553.56
2023-04-14T22:58:00.509Z,94550.34
2023-04-14T23:00:31.644Z,94547.13
2023-04-14T23:03:01.541Z,94545.53
2023-04-14T23:05:31.361Z,94548.19
2023-04-14T23:08:01.084Z,94546.34
2023-04-14T23:10:31.018Z,94545.25
2023-04-14T23:13:00.701Z,94542.31
2023-04-14T23:15:31.913Z,94542.03
2023-04-14T23:18:01.642Z,94539.09
2023-04-14T23:20:32.226Z,94542.03
2023-04-14T23:23:02.698Z,94536.41
2023-04-14T23:25:32.642Z,94540.91
2023-04-14T23:28:02.236Z,94543.53
2023-04-14T23:30:33.390Z,94541.41
2023-04-14T23:33:03.067Z,94540.63
2023-04-14T23:35:33.068Z,94541.19
2023-04-14T23:38:04.118Z,94540.94
2023-04-14T23:40:35.479Z,94532.38
2023-04-14T23:43:05.117Z,94536.13
2023-04-14T23:45:58.093Z,94529.50
2023-04-14T23:48:27.917Z,94530.28
2023-04-14T23:51:00.791Z,94519.06
2023-04-14T23:53:44.920Z,94525.22
2023-04-14T23:56:14.443Z,94515.84
2023-04-14T23:58:44.117Z,94519.03
